Time;durP1;ratioP1;P1;durP2;ratioP2;P2;SDS_P1;SDS_P2;PMS_P1;PMS_P2;Temp;Humidity;BMP_temperature;BMP_pressure;BME280_temperature;BME280_humidity;BME280_pressure;Samples;Min_cycle;Max_cycle;Signal;HPM_P1;HPM_P2
2023/07/26 00:00:43;;;;;;;22.73;16.20;;;;;;;27.31;61.72;99540.53;5033357;28;20882;-75
2023/07/26 00:03:08;;;;;;;20.42;15.52;;;;;;;27.43;61.17;99529.88;5032116;28;20402;-74
2023/07/26 00:05:34;;;;;;;19.93;15.90;;;;;;;27.51;60.53;99517.44;5032565;28;20447;-75
2023/07/26 00:07:59;;;;;;;21.20;16.23;;;;;;;27.42;61.28;99528.25;5032870;28;20378;-75
2023/07/26 00:10:25;;;;;;;18.17;15.73;;;;;;;27.44;61.11;99532.28;5032956;28;20894;-75
2023/07/26 00:12:50;;;;;;;20.23;15.50;;;;;;;27.45;60.63;99523.00;5032875;28;20912;-75
2023/07/26 00:15:16;;;;;;;20.42;16.25;;;;;;;27.31;61.16;99530.44;5032633;28;20383;-75
2023/07/26 00:17:42;;;;;;;20.02;15.85;;;;;;;27.14;61.72;99533.03;5032674;28;20889;-75
2023/07/26 00:20:08;;;;;;;21.17;15.57;;;;;;;27.06;62.25;99535.38;5032266;28;20382;-75
2023/07/26 00:22:33;;;;;;;20.83;14.82;;;;;;;27.02;62.22;99531.66;5032504;28;20470;-75
2023/07/26 00:25:00;;;;;;;19.87;15.37;;;;;;;26.88;62.65;99545.31;5033281;28;20412;-74
2023/07/26 00:27:26;;;;;;;21.15;15.30;;;;;;;26.81;62.99;99525.91;5032909;28;20436;-75
2023/07/26 00:29:51;;;;;;;21.73;15.17;;;;;;;26.80;62.94;99539.81;5032293;28;20366;-76
2023/07/26 00:32:17;;;;;;;19.60;15.07;;;;;;;26.78;63.00;99529.25;5032357;28;20382;-76
2023/07/26 00:34:42;;;;;;;20.45;15.80;;;;;;;26.85;62.46;99532.34;5031075;28;20681;-76
2023/07/26 00:37:07;;;;;;;19.60;14.90;;;;;;;26.80;62.42;99527.00;5032273;28;20385;-76
2023/07/26 00:39:33;;;;;;;21.40;16.13;;;;;;;26.70;62.80;99519.91;5032255;28;20841;-76
2023/07/26 00:41:58;;;;;;;19.33;14.67;;;;;;;26.69;62.90;99517.50;5032592;28;20457;-75
2023/07/26 00:44:24;;;;;;;21.53;15.20;;;;;;;26.64;62.80;99528.47;5032511;28;20401;-76
2023/07/26 00:46:50;;;;;;;19.48;15.32;;;;;;;26.78;62.13;99540.13;5031804;28;20374;-76
2023/07/26 00:49:16;;;;;;;21.45;16.05;;;;;;;26.79;61.98;99533.53;5031489;28;20375;-75
2023/07/26 00:51:42;;;;;;;20.33;15.23;;;;;;;26.92;61.56;99539.25;5031891;28;20386;-76
2023/07/26 00:54:08;;;;;;;21.90;16.00;;;;;;;26.74;62.13;99530.97;5031109;28;20397;-76
2023/07/26 00:56:34;;;;;;;20.20;15.68;;;;;;;26.79;61.96;99539.00;5031441;28;20740;-75
2023/07/26 00:59:00;;;;;;;18.95;15.18;;;;;;;26.73;61.90;99528.56;5031584;28;20750;-74
2023/07/26 01:01:26;;;;;;;21.40;15.57;;;;;;;26.56;62.55;99523.72;5031929;28;20379;-75
2023/07/26 01:03:52;;;;;;;27.67;16.27;;;;;;;26.56;62.45;99526.44;5031651;28;20399;-75
2023/07/26 01:06:43;;;;;;;21.95;15.68;;;;;;;26.63;62.36;99526.84;5031764;28;20378;-75
2023/07/26 01:09:11;;;;;;;19.17;15.02;;;;;;;26.63;62.33;99511.38;5031566;28;20371;-75
2023/07/26 01:11:50;;;;;;;20.45;15.10;;;;;;;26.74;61.99;99514.66;5030405;28;20381;-75
2023/07/26 01:14:25;;;;;;;23.17;14.77;;;;;;;26.80;61.38;99507.19;5031522;28;20902;-75
2023/07/26 01:16:51;;;;;;;17.88;15.25;;;;;;;26.91;60.67;99511.25;5031330;28;20387;-75
2023/07/26 01:19:16;;;;;;;18.33;14.63;;;;;;;26.94;60.67;99516.09;5031383;28;21087;-75
2023/07/26 01:21:42;;;;;;;20.63;16.02;;;;;;;26.98;60.63;99516.28;5030392;28;20716;-74
2023/07/26 01:24:07;;;;;;;18.23;15.23;;;;;;;26.93;60.95;99516.41;5031619;28;20591;-74
2023/07/26 01:26:33;;;;;;;21.27;15.57;;;;;;;26.91;60.68;99513.19;5031104;28;20402;-75
2023/07/26 01:28:58;;;;;;;21.13;16.63;;;;;;;26.88;60.79;99509.97;5031134;28;20621;-74
2023/07/26 01:31:25;;;;;;;20.27;15.15;;;;;;;26.81;61.27;99525.09;5031163;28;20385;-75
2023/07/26 01:33:52;;;;;;;22.00;15.20;;;;;;;26.70;61.44;99516.38;5030735;28;20371;-74
2023/07/26 01:36:26;;;;;;;17.70;14.52;;;;;;;26.75;61.44;99516.25;5031439;28;20416;-76
2023/07/26 01:38:53;;;;;;;21.47;15.03;;;;;;;26.72;61.03;99526.94;5031184;28;20416;-75
2023/07/26 01:41:19;;;;;;;17.33;15.10;;;;;;;26.77;60.65;99511.31;5031177;28;20370;-75
2023/07/26 01:43:45;;;;;;;22.75;14.68;;;;;;;26.51;62.17;99513.78;5031029;28;20402;-75
2023/07/26 01:46:12;;;;;;;19.70;15.17;;;;;;;26.57;61.70;99517.97;5031055;28;20746;-75
2023/07/26 01:48:37;;;;;;;19.02;14.77;;;;;;;26.60;61.41;99511.94;5030828;28;20402;-77
2023/07/26 01:51:03;;;;;;;19.73;14.97;;;;;;;26.57;61.65;99509.84;5031008;28;20398;-76
2023/07/26 01:53:28;;;;;;;19.05;14.25;;;;;;;26.51;62.09;99522.72;5030320;28;20378;-76
2023/07/26 01:55:54;;;;;;;20.47;15.13;;;;;;;26.62;61.59;99530.69;5030236;28;20382;-75
2023/07/26 01:58:19;;;;;;;20.27;14.70;;;;;;;26.54;61.83;99528.66;5030197;28;20425;-75
2023/07/26 02:00:45;;;;;;;18.30;15.07;;;;;;;26.33;62.24;99529.91;5029340;28;20378;-75
2023/07/26 02:03:10;;;;;;;20.37;14.87;;;;;;;26.35;62.17;99534.25;5029897;28;20402;-75
2023/07/26 02:05:42;;;;;;;21.17;15.68;;;;;;;26.37;62.04;99542.91;5033483;28;20396;-76
2023/07/26 02:08:08;;;;;;;17.80;14.73;;;;;;;26.38;61.64;99529.00;5036877;28;20382;-76
2023/07/26 02:10:33;;;;;;;21.23;15.50;;;;;;;26.36;61.67;99528.50;5036900;28;20934;-75
2023/07/26 02:12:59;;;;;;;19.93;14.97;;;;;;;26.22;62.22;99531.25;5037443;28;20370;-76
2023/07/26 02:15:24;;;;;;;21.17;15.00;;;;;;;26.04;62.81;99541.09;5037041;28;20375;-75
2023/07/26 02:17:50;;;;;;;17.37;14.33;;;;;;;26.03;62.72;99539.50;5052869;28;20416;-76
2023/07/26 02:20:15;;;;;;;18.77;14.07;;;;;;;25.96;62.91;99535.56;5037323;28;20374;-76
2023/07/26 02:22:40;;;;;;;18.57;14.80;;;;;;;26.09;62.23;99535.56;5037077;28;20378;-76
2023/07/26 02:25:06;;;;;;;20.23;15.17;;;;;;;26.11;62.26;99536.06;5037220;28;20432;-76
2023/07/26 02:27:32;;;;;;;18.65;14.60;;;;;;;26.16;62.08;99539.78;5037368;28;20819;-75
2023/07/26 02:29:57;;;;;;;17.50;14.20;;;;;;;26.17;61.92;99536.78;5037168;28;20381;-75
2023/07/26 02:32:23;;;;;;;18.90;13.80;;;;;;;26.18;61.92;99548.44;5039129;28;20414;-76
2023/07/26 02:34:48;;;;;;;20.07;14.07;;;;;;;26.20;61.72;99544.31;5038610;28;20370;-76
2023/07/26 02:37:14;;;;;;;17.40;13.60;;;;;;;26.23;61.48;99540.19;5038754;28;20386;-75
2023/07/26 02:39:39;;;;;;;17.40;13.10;;;;;;;26.22;61.56;99538.59;5037340;28;20809;-74
2023/07/26 02:42:05;;;;;;;18.83;13.93;;;;;;;26.20;61.36;99527.19;5037187;28;20377;-76
2023/07/26 02:44:30;;;;;;;20.13;14.25;;;;;;;26.30;60.95;99538.66;5037005;28;20398;-75
2023/07/26 02:46:56;;;;;;;21.57;14.40;;;;;;;26.37;60.98;99534.75;5037270;28;20385;-77
2023/07/26 02:49:21;;;;;;;17.53;13.83;;;;;;;26.41;60.46;99533.03;5036339;28;20465;-76
2023/07/26 02:51:47;;;;;;;22.47;13.97;;;;;;;26.33;60.95;99532.63;5036145;28;20847;-76
2023/07/26 02:54:12;;;;;;;17.65;13.35;;;;;;;26.35;60.75;99536.97;5036935;28;20834;-76
2023/07/26 02:56:38;;;;;;;16.88;14.02;;;;;;;26.29;60.81;99530.84;5036907;28;20462;-76
2023/07/26 02:59:03;;;;;;;23.07;14.43;;;;;;;26.30;61.13;99533.22;5036941;28;20420;-75
2023/07/26 03:01:29;;;;;;;20.37;14.67;;;;;;;26.33;60.92;99529.91;5037222;28;20420;-75
2023/07/26 03:03:54;;;;;;;18.92;15.25;;;;;;;26.29;61.90;99525.41;5036862;28;20390;-75
2023/07/26 03:06:20;;;;;;;20.50;15.15;;;;;;;26.32;61.86;99530.22;5037014;28;20718;-75
2023/07/26 03:08:45;;;;;;;23.17;14.93;;;;;;;26.36;61.91;99522.25;5036908;28;20378;-75
2023/07/26 03:11:11;;;;;;;21.83;15.53;;;;;;;26.40;62.00;99526.78;5036808;28;20378;-75
2023/07/26 03:13:36;;;;;;;24.80;16.02;;;;;;;26.40;62.32;99526.78;5036624;28;20441;-75
2023/07/26 03:16:02;;;;;;;22.37;15.27;;;;;;;26.43;62.09;99531.59;5036705;28;20396;-75
2023/07/26 03:18:27;;;;;;;20.63;15.30;;;;;;;26.47;62.25;99532.63;5033563;28;20367;-75
2023/07/26 03:20:53;;;;;;;18.37;15.17;;;;;;;26.53;62.07;99525.16;5034027;28;20444;-76
2023/07/26 03:23:18;;;;;;;22.92;15.40;;;;;;;26.50;62.31;99520.31;5033927;28;20394;-76
2023/07/26 03:25:44;;;;;;;22.13;14.97;;;;;;;26.41;62.91;99525.66;5033476;28;20422;-76
2023/07/26 03:28:09;;;;;;;20.70;15.10;;;;;;;26.41;62.89;99530.31;5033453;28;20971;-76
2023/07/26 03:30:35;;;;;;;20.55;15.05;;;;;;;26.42;62.98;99535.44;5033435;28;20425;-76
2023/07/26 03:33:00;;;;;;;20.85;15.70;;;;;;;26.40;63.23;99534.13;5033493;28;20754;-76
2023/07/26 03:35:26;;;;;;;21.23;15.40;;;;;;;26.29;63.58;99544.44;5033614;28;20370;-75
2023/07/26 03:37:51;;;;;;;19.93;15.57;;;;;;;26.29;63.73;99539.78;5033388;28;20378;-75
2023/07/26 03:40:17;;;;;;;20.97;15.60;;;;;;;26.28;63.77;99537.38;5033234;28;20854;-75
2023/07/26 03:42:42;;;;;;;20.30;16.25;;;;;;;26.24;63.92;99531.75;5032769;28;20469;-76
2023/07/26 03:45:08;;;;;;;22.67;16.03;;;;;;;26.29;64.27;99539.00;5033601;28;20465;-76
2023/07/26 03:47:33;;;;;;;20.37;15.57;;;;;;;26.35;64.12;99540.47;5033308;28;20393;-76
2023/07/26 03:50:01;;;;;;;22.63;16.10;;;;;;;26.39;64.22;99538.75;5049178;28;20411;-76
2023/07/26 03:52:27;;;;;;;22.13;15.93;;;;;;;26.50;63.80;99544.78;5033553;28;20385;-76
2023/07/26 03:54:54;;;;;;;22.60;16.00;;;;;;;26.56;63.81;99540.84;5033400;28;20362;-76
2023/07/26 03:57:20;;;;;;;21.05;16.08;;;;;;;26.65;63.46;99540.94;5033102;28;20516;-76
2023/07/26 03:59:45;;;;;;;22.97;15.90;;;;;;;26.77;63.46;99543.94;5032877;28;20386;-76
2023/07/26 04:02:11;;;;;;;22.73;16.17;;;;;;;26.79;63.38;99535.47;5032458;28;20382;-76
2023/07/26 04:04:36;;;;;;;22.67;16.45;;;;;;;26.78;63.84;99523.81;5033510;28;20390;-76
2023/07/26 04:07:05;;;;;;;24.90;16.80;;;;;;;26.79;64.02;99530.03;5032222;28;20375;-76
2023/07/26 04:09:32;;;;;;;25.60;16.23;;;;;;;26.80;63.98;99534.38;5032475;28;20417;-75
2023/07/26 04:11:57;;;;;;;23.27;16.75;;;;;;;26.85;64.00;99542.41;5033481;28;20371;-78
2023/07/26 04:14:23;;;;;;;23.93;16.03;;;;;;;26.79;64.39;99536.28;5033532;28;20453;-75
2023/07/26 04:16:49;;;;;;;24.45;16.70;;;;;;;26.84;64.55;99541.59;5033066;28;20374;-74
2023/07/26 04:19:15;;;;;;;20.70;16.73;;;;;;;26.86;64.45;99552.16;5033212;28;20381;-76
2023/07/26 04:21:40;;;;;;;25.03;16.70;;;;;;;26.82;63.99;99557.41;5034271;28;20379;-76
2023/07/26 04:24:06;;;;;;;26.23;17.07;;;;;;;26.89;64.19;99565.94;5032710;28;20696;-76
2023/07/26 04:26:32;;;;;;;22.37;16.77;;;;;;;26.98;63.83;99559.78;5032294;28;20378;-76
2023/07/26 04:28:57;;;;;;;24.58;16.88;;;;;;;26.99;63.81;99562.22;5031341;28;20378;-77
2023/07/26 04:31:23;;;;;;;25.00;16.27;;;;;;;27.16;63.02;99568.91;5032378;28;20398;-75
2023/07/26 04:33:48;;;;;;;27.65;16.63;;;;;;;27.29;62.36;99567.25;5032322;28;20454;-75
2023/07/26 04:36:14;;;;;;;22.37;16.43;;;;;;;27.08;62.36;99562.25;5032179;28;20385;-76
2023/07/26 04:38:40;;;;;;;29.15;16.73;;;;;;;27.19;61.35;99569.06;5033355;28;20817;-75
2023/07/26 04:41:05;;;;;;;27.77;17.83;;;;;;;27.01;60.74;99564.59;5031986;28;20482;-74
2023/07/26 04:43:31;;;;;;;27.90;18.57;;;;;;;27.02;60.76;99577.88;5031954;28;20394;-74
2023/07/26 04:45:57;;;;;;;26.20;18.17;;;;;;;26.91;60.30;99576.53;5032056;28;20394;-77
2023/07/26 04:48:22;;;;;;;27.13;19.20;;;;;;;26.91;60.13;99584.69;5032282;28;20458;-77
2023/07/26 04:50:49;;;;;;;22.40;17.37;;;;;;;26.82;60.45;99598.19;5032239;28;20374;-75
2023/07/26 04:53:16;;;;;;;24.80;17.63;;;;;;;26.84;60.53;99587.81;5032692;28;20375;-76
2023/07/26 04:55:43;;;;;;;26.25;18.55;;;;;;;26.81;60.92;99591.16;5029744;28;20405;-73
2023/07/26 04:58:09;;;;;;;26.13;18.38;;;;;;;26.93;60.97;99587.09;5026354;28;20917;-75
2023/07/26 05:00:40;;;;;;;24.90;17.97;;;;;;;27.03;60.53;99601.28;5023989;28;20384;-76
2023/07/26 05:03:06;;;;;;;21.67;17.20;;;;;;;27.16;60.56;99607.78;5023172;28;20403;-75
2023/07/26 05:05:34;;;;;;;24.83;17.97;;;;;;;27.27;60.40;99603.72;5026223;28;20378;-75
2023/07/26 05:07:59;;;;;;;20.67;17.65;;;;;;;27.36;60.21;99609.22;5025710;28;20450;-75
2023/07/26 05:10:25;;;;;;;26.97;16.27;;;;;;;27.55;59.87;99608.22;5028761;28;20375;-76
2023/07/26 05:12:55;;;;;;;24.17;17.20;;;;;;;27.64;60.02;99611.81;5031654;28;20688;-76
2023/07/26 05:15:21;;;;;;;25.70;16.98;;;;;;;27.73;60.16;99614.56;5032224;28;20377;-76
2023/07/26 05:17:46;;;;;;;20.70;16.40;;;;;;;27.91;59.82;99615.50;5031951;28;20457;-76
2023/07/26 05:20:12;;;;;;;21.77;14.60;;;;;;;28.03;59.03;99599.38;5020056;28;20375;-75
2023/07/26 05:22:38;;;;;;;25.13;15.30;;;;;;;28.28;58.32;99611.50;5020319;28;20378;-77
2023/07/26 05:25:07;;;;;;;20.40;13.30;;;;;;;28.38;56.37;99600.31;5018687;28;20805;-78
2023/07/26 05:27:33;;;;;;;21.67;12.85;;;;;;;28.54;55.82;99610.78;5023656;28;20769;-76
2023/07/26 05:29:59;;;;;;;19.73;12.70;;;;;;;28.69;54.95;99604.91;5022193;28;21015;-75
2023/07/26 05:32:25;;;;;;;20.40;13.23;;;;;;;28.82;54.46;99599.63;5022353;28;20827;-76
2023/07/26 05:34:55;;;;;;;21.85;12.70;;;;;;;29.04;53.39;99604.13;5034574;28;20465;-75
2023/07/26 05:37:22;;;;;;;22.05;13.30;;;;;;;29.18;53.05;99604.78;5022368;28;20472;-76
2023/07/26 05:39:51;;;;;;;19.97;11.83;;;;;;;29.30;52.58;99609.63;5022605;28;20382;-76
2023/07/26 05:42:18;;;;;;;22.98;12.20;;;;;;;29.21;52.36;99601.44;5023174;28;20462;-75
2023/07/26 05:44:43;;;;;;;17.83;11.20;;;;;;;29.36;52.33;99590.00;5026157;28;20414;-75
2023/07/26 05:47:10;;;;;;;17.90;11.18;;;;;;;29.66;51.48;99602.97;5022323;28;20469;-76
2023/07/26 05:49:36;;;;;;;15.63;11.13;;;;;;;29.65;51.17;99601.34;5039370;28;20394;-75
2023/07/26 05:52:03;;;;;;;18.30;10.07;;;;;;;29.61;50.59;99603.16;5022554;28;20453;-76
2023/07/26 05:54:28;;;;;;;20.97;10.70;;;;;;;29.76;50.96;99605.38;5019957;28;20903;-76
2023/07/26 05:56:55;;;;;;;19.02;10.38;;;;;;;30.08;49.26;99605.91;5011266;28;20380;-77
2023/07/26 05:59:20;;;;;;;16.88;9.57;;;;;;;30.27;48.59;99605.47;5011304;28;20418;-77
2023/07/26 06:01:46;;;;;;;18.33;8.80;;;;;;;30.52;47.47;99597.50;5020562;28;20408;-77
2023/07/26 06:04:11;;;;;;;20.80;9.33;;;;;;;30.69;46.73;99594.66;5021300;28;20398;-76
2023/07/26 06:06:37;;;;;;;19.93;7.63;;;;;;;30.94;45.92;99595.63;5022426;28;20790;-75
2023/07/26 06:09:04;;;;;;;17.43;7.43;;;;;;;31.17;43.94;99592.53;5020581;28;20760;-76
2023/07/26 06:11:30;;;;;;;18.00;7.30;;;;;;;31.45;42.67;99590.81;5020114;28;20458;-76
2023/07/26 06:13:55;;;;;;;16.50;7.15;;;;;;;31.57;41.18;99590.09;5022430;28;20478;-75
2023/07/26 06:16:21;;;;;;;16.60;6.77;;;;;;;31.71;40.18;99602.66;5024322;28;20722;-76
2023/07/26 06:18:53;;;;;;;14.83;7.07;;;;;;;31.69;40.39;99605.72;5032472;28;20389;-75
2023/07/26 06:21:19;;;;;;;16.35;6.38;;;;;;;31.56;40.17;99602.16;5051150;28;20373;-75
2023/07/26 06:23:46;;;;;;;16.95;7.30;;;;;;;31.60;39.99;99608.59;5046725;28;20695;-75
2023/07/26 06:26:12;;;;;;;19.92;9.80;;;;;;;31.88;39.46;99604.41;5023255;28;20403;-74
2023/07/26 06:28:39;;;;;;;15.60;7.85;;;;;;;31.90;40.12;99602.91;5051566;28;20411;-76
2023/07/26 06:31:04;;;;;;;20.88;8.10;;;;;;;32.13;39.27;99597.84;5043727;28;20417;-76
2023/07/26 06:33:30;;;;;;;35.83;24.93;;;;;;;32.51;38.91;99593.13;5045778;28;20365;-75
2023/07/26 06:35:56;;;;;;;24.03;14.33;;;;;;;32.36;39.24;99583.66;5050738;28;20864;-76
2023/07/26 06:38:22;;;;;;;19.98;6.78;;;;;;;32.49;38.27;99590.72;5051306;28;20373;-77
2023/07/26 06:40:48;;;;;;;20.27;6.88;;;;;;;32.71;37.78;99589.44;5052002;28;20454;-75
2023/07/26 06:43:13;;;;;;;20.17;7.53;;;;;;;32.96;37.65;99589.38;5051573;28;20470;-76
2023/07/26 06:45:44;;;;;;;29.48;14.80;;;;;;;32.99;38.14;99587.88;5050611;28;20396;-76
2023/07/26 06:48:09;;;;;;;20.13;12.90;;;;;;;33.01;38.42;99582.84;5051217;28;20454;-77
2023/07/26 06:50:38;;;;;;;31.00;17.43;;;;;;;33.22;37.62;99575.22;5051134;28;20844;-76
2023/07/26 06:53:04;;;;;;;25.95;14.48;;;;;;;33.45;36.75;99588.41;5053884;28;20365;-76
2023/07/26 06:55:32;;;;;;;15.03;7.30;;;;;;;33.60;36.32;99595.06;5054640;28;20445;-76
2023/07/26 06:57:57;;;;;;;16.02;7.13;;;;;;;33.54;36.13;99589.03;5052528;28;20750;-76
2023/07/26 07:00:24;;;;;;;23.37;10.00;;;;;;;33.76;37.03;99584.91;5030415;28;20875;-77
2023/07/26 07:03:03;;;;;;;19.25;7.85;;;;;;;33.75;36.42;99585.28;5051816;28;20392;-75
2023/07/26 07:05:33;;;;;;;20.98;6.75;;;;;;;33.93;36.57;99591.22;5053663;28;20413;-74
2023/07/26 07:07:58;;;;;;;19.25;8.27;;;;;;;33.80;37.22;99585.00;5053240;28;20397;-76
2023/07/26 07:10:24;;;;;;;15.73;6.25;;;;;;;33.87;35.63;99583.25;5054522;28;20417;-77
2023/07/26 07:12:50;;;;;;;21.33;6.50;;;;;;;33.77;35.38;99583.78;5054605;28;20446;-76
2023/07/26 07:15:15;;;;;;;13.60;6.13;;;;;;;33.89;34.93;99582.91;5053328;28;20868;-75
2023/07/26 07:17:41;;;;;;;15.83;6.30;;;;;;;34.03;34.00;99576.94;5053251;28;20424;-74
2023/07/26 07:20:07;;;;;;;13.33;5.40;;;;;;;34.06;33.89;99587.22;5023058;28;20383;-76
2023/07/26 07:22:33;;;;;;;15.85;6.00;;;;;;;33.82;34.02;99586.25;5033526;28;20382;-75
2023/07/26 07:24:59;;;;;;;16.02;5.47;;;;;;;33.69;34.17;99585.53;5020508;28;20943;-76
2023/07/26 07:27:25;;;;;;;14.83;5.47;;;;;;;33.85;33.39;99585.56;5026593;28;20404;-77
2023/07/26 07:29:50;;;;;;;15.90;5.80;;;;;;;33.81;33.53;99581.09;5013498;28;20430;-76
2023/07/26 07:32:16;;;;;;;17.42;6.63;;;;;;;33.87;32.91;99586.00;5032301;28;20474;-76
2023/07/26 07:34:42;;;;;;;16.25;5.88;;;;;;;33.97;33.32;99587.41;5021863;28;20801;-76
2023/07/26 07:37:08;;;;;;;14.93;5.70;;;;;;;33.92;33.56;99589.63;5031993;28;20391;-75
2023/07/26 07:39:34;;;;;;;14.05;5.78;;;;;;;34.00;33.49;99594.16;5031655;28;20394;-75
2023/07/26 07:42:00;;;;;;;14.95;6.10;;;;;;;34.27;33.06;99586.97;5036714;28;20434;-75
2023/07/26 07:44:28;;;;;;;14.73;5.63;;;;;;;34.52;32.71;99593.03;5035854;28;20441;-77
2023/07/26 07:46:53;;;;;;;16.48;5.47;;;;;;;34.63;31.24;99580.31;5027717;28;20401;-76
2023/07/26 07:49:19;;;;;;;19.03;5.90;;;;;;;34.99;29.94;99596.81;5036001;28;20409;-77
2023/07/26 07:51:45;;;;;;;15.50;5.80;;;;;;;35.21;29.85;99600.81;5030952;28;20380;-76
2023/07/26 07:54:10;;;;;;;22.55;5.85;;;;;;;35.34;29.95;99595.94;5024820;28;20372;-77
2023/07/26 07:56:36;;;;;;;18.10;5.80;;;;;;;35.36;30.29;99608.16;5039634;28;20477;-76
2023/07/26 07:59:01;;;;;;;15.82;5.60;;;;;;;35.53;30.17;99600.59;5023178;28;20551;-77
2023/07/26 08:01:27;;;;;;;14.20;5.13;;;;;;;35.44;29.03;99611.06;5030865;28;20692;-76
2023/07/26 08:03:52;;;;;;;19.42;5.65;;;;;;;35.57;29.17;99623.53;5032858;28;20406;-75
2023/07/26 08:06:18;;;;;;;22.95;5.70;;;;;;;35.52;29.65;99632.88;5033328;28;20537;-74
2023/07/26 08:08:43;;;;;;;17.40;5.25;;;;;;;35.60;28.09;99628.28;5034929;28;20842;-75
2023/07/26 08:11:09;;;;;;;17.33;5.45;;;;;;;35.69;29.13;99620.59;5035259;28;20463;-75
2023/07/26 08:13:35;;;;;;;19.80;5.65;;;;;;;35.87;28.81;99620.94;5033824;28;20889;-75
2023/07/26 08:16:01;;;;;;;19.08;6.00;;;;;;;35.98;28.50;99623.88;5034367;28;20389;-76
2023/07/26 08:18:26;;;;;;;16.17;5.60;;;;;;;35.95;28.82;99625.41;5035932;28;20382;-76
2023/07/26 08:20:52;;;;;;;15.82;5.60;;;;;;;36.03;28.91;99631.81;5036826;28;20405;-76
2023/07/26 08:23:17;;;;;;;18.52;6.70;;;;;;;35.91;31.01;99648.59;5035112;28;20464;-75
2023/07/26 08:25:43;;;;;;;17.90;5.85;;;;;;;35.54;33.24;99658.13;5032458;28;20396;-75
2023/07/26 08:28:09;;;;;;;19.58;6.15;;;;;;;35.08;34.32;99655.22;5033304;28;20457;-76
2023/07/26 08:30:34;;;;;;;15.07;6.20;;;;;;;35.03;34.37;99650.78;5032981;28;20422;-75
2023/07/26 08:33:00;;;;;;;14.83;5.90;;;;;;;34.80;35.13;99656.19;5033128;28;20429;-75
2023/07/26 08:35:25;;;;;;;18.17;6.03;;;;;;;34.51;36.06;99654.72;5032674;28;20370;-74
2023/07/26 08:37:51;;;;;;;13.40;5.90;;;;;;;34.37;36.54;99657.94;5031109;28;20802;-76
2023/07/26 08:40:17;;;;;;;13.40;6.27;;;;;;;34.16;37.26;99655.44;5020246;28;20478;-76
2023/07/26 08:42:43;;;;;;;18.58;6.47;;;;;;;34.18;37.37;99642.16;5031896;28;20503;-76
2023/07/26 08:45:10;;;;;;;13.23;5.15;;;;;;;34.04;37.42;99652.78;5033032;28;20521;-76
2023/07/26 08:47:36;;;;;;;16.47;5.50;;;;;;;33.96;36.48;99654.56;5033434;28;20451;-77
2023/07/26 08:50:07;;;;;;;10.95;4.45;;;;;;;33.86;36.14;99661.34;5033595;28;20385;-76
2023/07/26 08:52:33;;;;;;;20.67;6.40;;;;;;;33.67;38.02;99650.25;5035308;28;20396;-76
2023/07/26 08:55:00;;;;;;;12.68;6.47;;;;;;;33.64;39.96;99659.97;5043921;28;20465;-77
2023/07/26 08:57:26;;;;;;;12.87;6.50;;;;;;;33.14;40.93;99653.88;5045601;28;20540;-77
2023/07/26 08:59:51;;;;;;;11.90;4.90;;;;;;;33.30;39.86;99656.69;5036820;28;20420;-75
2023/07/26 09:02:18;;;;;;;12.13;5.13;;;;;;;32.71;40.81;99680.00;5043382;28;20478;-75
2023/07/26 09:04:45;;;;;;;13.55;6.15;;;;;;;33.15;39.94;99671.13;5051825;28;20408;-76
2023/07/26 09:07:12;;;;;;;10.43;4.67;;;;;;;33.09;40.00;99670.56;5051676;28;20853;-79
2023/07/26 09:09:38;;;;;;;14.00;5.38;;;;;;;33.11;40.25;99678.44;5053176;28;20377;-78
2023/07/26 09:12:04;;;;;;;13.88;5.43;;;;;;;33.14;40.38;99670.34;5051663;28;20420;-75
2023/07/26 09:14:32;;;;;;;11.15;5.30;;;;;;;33.38;39.73;99668.66;5051410;28;20454;-76
2023/07/26 09:16:59;;;;;;;11.15;5.43;;;;;;;33.61;39.23;99677.16;5052605;28;20381;-77
2023/07/26 09:19:33;;;;;;;13.23;5.82;;;;;;;33.13;39.87;99666.03;5051833;28;20861;-75
2023/07/26 09:22:01;;;;;;;13.45;6.10;;;;;;;33.19;39.69;99680.31;5052431;28;20422;-76
2023/07/26 09:24:36;;;;;;;13.90;6.78;;;;;;;33.18;40.48;99675.16;5053369;28;20888;-76
2023/07/26 09:27:06;;;;;;;10.93;6.97;;;;;;;32.69;41.55;99676.03;5050798;28;20403;-76
2023/07/26 09:29:32;;;;;;;13.63;8.07;;;;;;;32.86;41.81;99677.69;5052152;28;20408;-76
2023/07/26 09:31:58;;;;;;;14.07;8.23;;;;;;;33.32;40.92;99681.06;5052534;28;20454;-77
2023/07/26 09:34:23;;;;;;;12.10;7.60;;;;;;;32.76;41.19;99679.00;5052145;28;20628;-77
2023/07/26 09:36:51;;;;;;;15.50;8.30;;;;;;;33.05;40.86;99679.84;5034736;28;20413;-76
2023/07/26 09:39:18;;;;;;;14.68;8.02;;;;;;;32.82;40.12;99677.59;5030763;28;20386;-76
2023/07/26 09:41:47;;;;;;;15.93;9.05;;;;;;;32.74;40.15;99684.81;5031413;28;20386;-76
2023/07/26 09:44:20;;;;;;;14.02;9.63;;;;;;;32.94;39.37;99683.06;5032043;28;20406;-79
2023/07/26 09:46:52;;;;;;;16.53;9.53;;;;;;;33.09;39.70;99684.28;5031108;28;20386;-76
2023/07/26 09:49:26;;;;;;;16.35;10.30;;;;;;;32.68;40.01;99686.22;5025038;28;20384;-76
2023/07/26 09:51:54;;;;;;;17.98;9.68;;;;;;;32.60;39.92;99703.56;5029327;28;20398;-77
2023/07/26 09:54:23;;;;;;;21.48;10.48;;;;;;;32.34;40.82;99704.69;5034473;28;20381;-78
2023/07/26 09:56:53;;;;;;;16.08;11.82;;;;;;;32.38;40.90;99708.34;5052023;28;20400;-76
2023/07/26 09:59:19;;;;;;;16.60;12.10;;;;;;;32.65;40.42;99697.06;5050246;28;20376;-77
2023/07/26 10:01:45;;;;;;;18.07;12.20;;;;;;;32.62;41.03;99723.22;5051094;28;20383;-77
2023/07/26 10:04:14;;;;;;;16.02;12.10;;;;;;;32.24;41.06;99710.59;5054014;28;20454;-78
2023/07/26 10:06:41;;;;;;;17.33;12.48;;;;;;;32.26;41.49;99713.81;5052169;28;20385;-77
2023/07/26 10:09:13;;;;;;;23.02;13.45;;;;;;;32.58;41.11;99714.06;5052881;28;20524;-78
2023/07/26 10:11:41;;;;;;;17.13;11.88;;;;;;;32.05;41.17;99691.94;5051848;28;20408;-77
2023/07/26 10:14:09;;;;;;;16.42;10.55;;;;;;;31.74;41.26;99693.19;5051219;28;20466;-77
2023/07/26 10:16:36;;;;;;;16.17;10.95;;;;;;;31.93;40.92;99703.66;5053391;28;20423;-78
2023/07/26 10:19:03;;;;;;;14.13;10.93;;;;;;;31.82;41.06;99706.03;5052901;28;20756;-75
2023/07/26 10:21:30;;;;;;;15.57;10.40;;;;;;;32.11;40.91;99707.03;5050275;28;20384;-76
2023/07/26 10:24:01;;;;;;;16.20;10.68;;;;;;;32.16;40.16;99703.25;5050626;28;20400;-76
2023/07/26 10:26:30;;;;;;;15.15;9.55;;;;;;;32.00;40.67;99709.38;5053450;28;20380;-77
2023/07/26 10:28:59;;;;;;;14.20;10.00;;;;;;;32.02;40.16;99703.56;5054926;28;20375;-76
2023/07/26 10:31:26;;;;;;;15.30;8.68;;;;;;;32.09;39.80;99719.47;5054931;28;20431;-75
2023/07/26 10:33:54;;;;;;;14.95;9.75;;;;;;;32.08;39.70;99694.00;5055888;28;20380;-76
2023/07/26 10:36:20;;;;;;;16.88;9.73;;;;;;;32.02;39.89;99706.31;5055820;28;20499;-75
2023/07/26 10:38:49;;;;;;;19.20;10.65;;;;;;;31.83;40.37;99702.13;5056088;28;20708;-78
2023/07/26 10:41:26;;;;;;;19.02;12.10;;;;;;;32.09;40.38;99709.31;5031320;28;20387;-76
2023/07/26 10:44:02;;;;;;;15.75;11.75;;;;;;;32.31;40.03;99705.34;5023424;28;20476;-76
2023/07/26 10:46:28;;;;;;;18.33;11.93;;;;;;;32.47;39.64;99721.94;5051117;28;20373;-76
2023/07/26 10:48:53;;;;;;;17.70;12.40;;;;;;;32.16;40.33;99720.53;5044145;28;20379;-76
2023/07/26 10:51:31;;;;;;;21.40;13.00;;;;;;;32.14;39.93;99736.53;5056402;28;20756;-77
2023/07/26 10:53:58;;;;;;;20.10;13.82;;;;;;;32.10;40.14;99716.41;5057655;28;20424;-75
2023/07/26 10:56:35;;;;;;;19.77;13.00;;;;;;;31.94;40.54;99724.44;5056181;28;20464;-75
2023/07/26 10:59:04;;;;;;;18.73;13.57;;;;;;;32.07;40.76;99727.25;5054307;28;20401;-76
2023/07/26 11:01:32;;;;;;;22.10;13.98;;;;;;;32.32;40.41;99726.16;5046558;28;20413;-76
2023/07/26 11:03:59;;;;;;;20.00;14.18;;;;;;;32.35;40.21;99743.88;5027335;28;20392;-76
2023/07/26 11:06:56;;;;;;;16.02;13.57;;;;;;;31.75;40.57;99735.13;5055561;28;20388;-76
2023/07/26 11:09:24;;;;;;;17.85;12.73;;;;;;;31.56;41.62;99730.91;5053336;28;20901;-75
2023/07/26 11:12:01;;;;;;;18.75;13.32;;;;;;;31.23;41.45;99739.03;5053391;28;20446;-76
2023/07/26 11:14:32;;;;;;;14.52;11.60;;;;;;;31.20;41.54;99732.28;5053083;28;20388;-76
2023/07/26 11:17:02;;;;;;;22.10;15.30;;;;;;;31.28;41.32;99713.38;5047838;28;20401;-76